Terminal Aerodrome Forecast
Issued by NWS

Home | Current Version | Previous Version | Text Only | Print | Product List | Glossary On
Versions: 1 2 3 4 5 6 7 8 9 10 11 12 13 14 15 16 17 18 19 20 21 22 23 24 25 26 27
000
FTUS44 KFWD 312100 AAA
TAFDAL
TAF AMD
KDAL 312100Z 3121/0118 34014KT P6SM BKN025 OVC050
     FM312300 36011KT P6SM BKN035
     FM010400 36009KT P6SM BKN015
     FM010800 01009KT P6SM BKN008
     FM011400 01009KT P6SM BKN012=

USA.gov is the U.S. government's official web portal to all federal, state and local government web resources and services.